Time;durP1;ratioP1;P1;durP2;ratioP2;P2;SDS_P1;SDS_P2;PMS_P1;PMS_P2;Temp;Humidity;BMP_temperature;BMP_pressure;BME280_temperature;BME280_humidity;BME280_pressure;Samples;Min_cycle;Max_cycle;Signal;HPM_P1;HPM_P2
2022/07/10 00:00:03;;;;;;;1.55;0.88;;;;;;;21.71;44.00;102614.50;5050416;28;20363;-61
2022/07/10 00:02:28;;;;;;;4.30;1.20;;;;;;;22.05;44.21;102673.56;5066526;28;20120;-60
2022/07/10 00:04:53;;;;;;;2.63;0.98;;;;;;;22.03;44.06;102675.53;5066216;28;20025;-59
2022/07/10 00:07:19;;;;;;;4.15;0.93;;;;;;;22.05;43.94;102673.56;5067803;28;20029;-60
2022/07/10 00:09:44;;;;;;;3.38;0.98;;;;;;;22.04;44.16;102680.81;5065980;28;20024;-60
2022/07/10 00:12:09;;;;;;;2.63;0.75;;;;;;;22.03;44.06;102670.13;5066294;28;20041;-60
2022/07/10 00:14:34;;;;;;;3.00;1.33;;;;;;;21.81;44.01;102631.56;5065934;28;20040;-60
2022/07/10 00:17:00;;;;;;;1.80;0.65;;;;;;;21.81;44.16;102633.41;5067548;28;20045;-60
2022/07/10 00:19:25;;;;;;;2.25;0.90;;;;;;;22.03;44.07;102668.25;5066843;28;20029;-60
2022/07/10 00:21:50;;;;;;;1.88;0.75;;;;;;;22.02;44.08;102657.59;5067267;28;20506;-60
2022/07/10 00:24:15;;;;;;;3.45;0.70;;;;;;;21.96;44.27;102646.34;5067432;28;20033;-60
2022/07/10 00:26:41;;;;;;;1.42;0.77;;;;;;;22.01;44.01;102653.19;5067460;28;20033;-60
2022/07/10 00:29:06;;;;;;;1.27;0.70;;;;;;;21.98;44.05;102642.63;5067081;28;20033;-60
2022/07/10 00:31:31;;;;;;;2.75;1.00;;;;;;;21.81;43.99;102620.72;5068692;28;20092;-60
2022/07/10 00:33:57;;;;;;;5.65;1.33;;;;;;;21.99;43.89;102647.03;5086969;28;20040;-59
2022/07/10 00:36:22;;;;;;;2.35;1.08;;;;;;;21.77;44.10;102627.44;5087349;28;20097;-60
2022/07/10 00:38:47;;;;;;;4.25;0.95;;;;;;;21.92;43.86;102653.06;5087020;28;20546;-60
2022/07/10 00:41:12;;;;;;;2.45;0.70;;;;;;;21.95;43.91;102654.59;5086991;28;20038;-61
2022/07/10 00:43:58;;;;;;;3.55;1.15;;;;;;;21.70;44.09;102608.19;5086569;28;20048;-61
2022/07/10 00:46:26;;;;;;;4.35;0.90;;;;;;;21.70;44.19;102619.03;5086023;28;20100;-60
2022/07/10 00:48:52;;;;;;;2.83;1.00;;;;;;;21.93;44.26;102652.03;5085199;28;20055;-59
2022/07/10 00:51:18;;;;;;;2.70;0.90;;;;;;;21.92;43.87;102652.22;5085411;28;20013;-60
2022/07/10 00:53:46;;;;;;;3.00;0.80;;;;;;;21.92;43.94;102652.22;5086790;28;20108;-60
2022/07/10 00:56:14;;;;;;;2.40;0.95;;;;;;;21.73;43.95;102622.44;5085671;28;20050;-60
2022/07/10 00:58:39;;;;;;;2.47;0.70;;;;;;;21.66;43.98;102612.22;5086576;28;20039;-60
2022/07/10 01:01:06;;;;;;;2.75;0.75;;;;;;;21.70;44.35;102612.75;5084676;28;20115;-60
2022/07/10 01:03:31;;;;;;;2.47;0.90;;;;;;;21.89;43.89;102653.34;5071032;28;20497;-60
2022/07/10 01:05:58;;;;;;;2.25;0.70;;;;;;;21.88;44.18;102638.09;5084182;28;20112;-60
2022/07/10 01:08:23;;;;;;;2.28;0.80;;;;;;;21.68;44.05;102609.34;5072060;28;20031;-60
2022/07/10 01:10:49;;;;;;;1.85;0.93;;;;;;;21.87;44.06;102638.22;5067367;28;20029;-60
2022/07/10 01:13:15;;;;;;;2.75;1.00;;;;;;;21.86;44.07;102636.53;5086464;28;20021;-60
2022/07/10 01:15:40;;;;;;;1.45;0.80;;;;;;;21.66;43.94;102604.09;5080129;28;20024;-60
2022/07/10 01:18:06;;;;;;;3.90;1.00;;;;;;;21.86;43.89;102636.53;5066344;28;20029;-61
2022/07/10 01:20:32;;;;;;;1.42;0.70;;;;;;;21.85;43.77;102627.56;5064293;28;20029;-61
2022/07/10 01:22:58;;;;;;;2.85;1.13;;;;;;;21.84;44.12;102628.56;5065282;28;20048;-60
2022/07/10 01:25:24;;;;;;;2.03;0.80;;;;;;;21.84;44.04;102630.41;5080599;28;20020;-61
2022/07/10 01:27:50;;;;;;;2.70;0.70;;;;;;;21.84;43.67;102633.13;5086456;28;20051;-60
2022/07/10 01:30:15;;;;;;;2.50;0.90;;;;;;;21.83;43.75;102634.09;5085888;28;20025;-60
2022/07/10 01:32:40;;;;;;;1.77;0.50;;;;;;;21.81;43.70;102623.44;5084829;28;20024;-60
2022/07/10 01:35:07;;;;;;;3.22;0.90;;;;;;;21.57;43.79;102591.41;5085400;28;20473;-60
2022/07/10 01:37:32;;;;;;;9.77;1.58;;;;;;;21.80;43.73;102627.16;5084931;28;20021;-60
2022/07/10 01:39:57;;;;;;;1.77;0.88;;;;;;;21.59;43.94;102599.41;5067664;28;20028;-60
2022/07/10 01:42:23;;;;;;;3.47;0.82;;;;;;;21.77;43.65;102623.88;5070315;28;20021;-61
2022/07/10 01:44:48;;;;;;;3.40;0.82;;;;;;;21.77;43.99;102624.72;5064320;28;20114;-60
2022/07/10 01:47:13;;;;;;;2.50;0.73;;;;;;;21.77;43.59;102618.47;5065571;28;20036;-60
2022/07/10 01:49:38;;;;;;;2.97;0.82;;;;;;;21.76;43.87;102624.88;5063721;28;20028;-60
2022/07/10 01:52:04;;;;;;;1.63;0.60;;;;;;;21.75;43.91;102624.03;5065663;28;20040;-60
2022/07/10 01:54:29;;;;;;;2.05;0.80;;;;;;;21.74;43.92;102622.28;5065706;28;20084;-60
2022/07/10 01:56:55;;;;;;;3.10;0.98;;;;;;;21.73;43.71;102617.88;5065712;28;20040;-61
2022/07/10 01:59:20;;;;;;;2.10;0.77;;;;;;;21.72;43.98;102613.47;5047625;28;20096;-61
2022/07/10 02:01:45;;;;;;;3.20;0.90;;;;;;;21.71;43.53;102606.38;5064427;28;20024;-61
2022/07/10 02:06:54;;;;;;;1.80;0.80;;;;;;;21.51;43.67;102564.09;5065946;28;20067;-60
2022/07/10 02:09:19;;;;;;;3.35;0.90;;;;;;;21.69;43.95;102589.41;5065401;28;20059;-60
2022/07/10 02:11:44;;;;;;;1.85;0.70;;;;;;;21.68;43.83;102593.13;5063790;28;20035;-60
2022/07/10 02:14:10;;;;;;;2.13;0.77;;;;;;;21.49;43.91;102560.66;5064226;28;20090;-60
2022/07/10 02:16:38;;;;;;;1.65;0.90;;;;;;;21.66;43.99;102593.28;5078863;28;20033;-60
2022/07/10 02:19:03;;;;;;;1.48;0.73;;;;;;;21.38;43.97;102540.06;5084127;28;20021;-60
2022/07/10 02:21:29;;;;;;;1.63;0.60;;;;;;;21.65;43.74;102587.97;5067267;28;20048;-61
2022/07/10 02:23:54;;;;;;;2.65;0.93;;;;;;;21.42;43.68;102546.88;5084498;28;20042;-61
2022/07/10 02:26:19;;;;;;;2.53;0.70;;;;;;;21.64;43.88;102583.56;5084167;28;20035;-61
2022/07/10 02:28:44;;;;;;;1.95;0.52;;;;;;;21.44;43.62;102544.88;5067014;28;20088;-61
2022/07/10 02:31:10;;;;;;;2.08;0.82;;;;;;;21.62;43.82;102570.19;5085302;28;20028;-61
2022/07/10 02:33:36;;;;;;;1.45;0.60;;;;;;;21.41;43.63;102540.63;5085021;28;20028;-61
2022/07/10 02:36:02;;;;;;;1.40;0.60;;;;;;;21.41;43.54;102543.31;5085134;28;20028;-61
2022/07/10 02:38:27;;;;;;;1.27;0.80;;;;;;;21.59;43.53;102575.03;5084969;28;20485;-61
2022/07/10 02:40:52;;;;;;;2.42;1.00;;;;;;;21.56;43.56;102581.59;5083789;28;20059;-61
2022/07/10 02:43:18;;;;;;;1.95;0.77;;;;;;;21.55;43.76;102571.78;5083761;28;20028;-61
2022/07/10 02:45:43;;;;;;;2.03;0.88;;;;;;;21.57;43.73;102577.88;5066968;28;20020;-60
2022/07/10 02:48:08;;;;;;;2.15;0.80;;;;;;;21.56;43.69;102573.47;5085231;28;20032;-60
2022/07/10 02:50:33;;;;;;;2.63;1.15;;;;;;;21.37;43.53;102539.19;5084384;28;20465;-61
2022/07/10 02:52:59;;;;;;;1.85;1.23;;;;;;;21.54;43.38;102575.50;5085245;28;20039;-60
2022/07/10 02:55:24;;;;;;;1.90;1.00;;;;;;;21.53;43.33;102573.75;5084997;28;20024;-61
2022/07/10 02:57:49;;;;;;;1.73;0.60;;;;;;;21.52;43.58;102563.94;5085354;28;20048;-60
2022/07/10 03:00:14;;;;;;;1.20;0.60;;;;;;;21.44;43.42;102555.69;5087373;28;20035;-60
2022/07/10 03:02:40;;;;;;;3.17;1.05;;;;;;;21.26;43.72;102522.25;5089083;28;20047;-61
2022/07/10 03:05:05;;;;;;;2.20;0.88;;;;;;;21.28;43.81;102529.22;5087399;28;20084;-61
2022/07/10 03:07:31;;;;;;;1.30;0.68;;;;;;;21.50;43.50;102567.81;5089155;28;20059;-60
2022/07/10 03:09:56;;;;;;;2.40;0.90;;;;;;;21.44;43.44;102558.41;5087563;28;20492;-60
2022/07/10 03:12:21;;;;;;;2.45;1.33;;;;;;;21.26;43.51;102543.88;5087590;28;20480;-60
2022/07/10 03:14:46;;;;;;;2.15;0.82;;;;;;;21.48;43.67;102570.63;5087357;28;20024;-60
2022/07/10 03:17:12;;;;;;;1.27;0.82;;;;;;;21.27;43.44;102542.88;5069005;28;20044;-60
2022/07/10 03:19:38;;;;;;;2.63;0.73;;;;;;;21.28;43.68;102545.47;5066645;28;20055;-61
2022/07/10 03:22:03;;;;;;;2.50;1.08;;;;;;;21.27;43.73;102548.28;5067476;28;20035;-61
2022/07/10 03:24:28;;;;;;;1.60;0.68;;;;;;;21.24;43.41;102549.44;5067085;28;20039;-60
2022/07/10 03:26:54;;;;;;;2.20;0.95;;;;;;;21.43;43.16;102575.63;5068570;28;20036;-60
2022/07/10 03:29:19;;;;;;;1.63;0.70;;;;;;;21.22;43.36;102540.59;5067072;28;20035;-59
2022/07/10 03:31:44;;;;;;;2.15;0.70;;;;;;;21.43;43.49;102581.91;5068358;28;20039;-60
2022/07/10 03:34:10;;;;;;;2.15;0.90;;;;;;;21.43;43.58;102581.91;5067802;28;20485;-60
2022/07/10 03:36:35;;;;;;;2.45;1.15;;;;;;;21.21;43.48;102538.91;5067067;28;20028;-61
2022/07/10 03:39:00;;;;;;;2.22;0.77;;;;;;;21.43;43.64;102578.34;5066762;28;20110;-60
2022/07/10 03:41:25;;;;;;;2.47;0.80;;;;;;;21.43;43.68;102578.34;5068209;28;20430;-61
2022/07/10 03:43:51;;;;;;;3.90;1.45;;;;;;;21.41;43.63;102575.78;5067770;28;20057;-61
2022/07/10 03:46:16;;;;;;;2.35;1.25;;;;;;;21.41;43.82;102580.34;5068394;28;20029;-61
2022/07/10 03:48:41;;;;;;;1.95;0.95;;;;;;;21.40;43.79;102565.94;5066587;28;20032;-61
2022/07/10 03:51:06;;;;;;;1.80;0.80;;;;;;;21.39;43.87;102571.50;5067817;28;20040;-61
2022/07/10 03:53:32;;;;;;;2.58;0.90;;;;;;;21.39;44.00;102577.78;5066984;28;20107;-61
2022/07/10 03:55:57;;;;;;;1.80;0.90;;;;;;;21.20;43.59;102543.47;5068034;28;20028;-60
2022/07/10 03:58:22;;;;;;;1.35;0.70;;;;;;;21.38;43.91;102580.63;5066914;28;20088;-60
2022/07/10 04:00:47;;;;;;;1.40;0.80;;;;;;;21.39;43.91;102574.22;5067482;28;20043;-60
2022/07/10 04:03:13;;;;;;;2.30;0.90;;;;;;;21.35;43.61;102568.25;5068128;28;20060;-60
2022/07/10 04:05:39;;;;;;;1.33;0.68;;;;;;;21.12;43.72;102531.66;5065953;28;20029;-60
2022/07/10 04:08:04;;;;;;;2.13;0.90;;;;;;;21.37;44.01;102573.53;5066507;28;20060;-60
2022/07/10 04:10:31;;;;;;;2.30;0.77;;;;;;;21.37;44.09;102581.66;5066888;28;20059;-60
2022/07/10 04:12:56;;;;;;;1.90;0.70;;;;;;;21.35;43.66;102573.66;5066085;28;20025;-60
2022/07/10 04:15:22;;;;;;;1.73;0.80;;;;;;;21.36;43.83;102580.75;5071842;28;20028;-60
2022/07/10 04:17:48;;;;;;;4.25;0.95;;;;;;;21.36;44.16;102579.91;5086374;28;20080;-61
2022/07/10 04:20:13;;;;;;;1.90;0.90;;;;;;;21.16;44.03;102546.59;5086795;28;20028;-61
2022/07/10 04:22:39;;;;;;;1.60;0.60;;;;;;;21.35;44.19;102567.38;5086045;28;20016;-61
2022/07/10 04:25:05;;;;;;;2.13;1.00;;;;;;;21.34;44.22;102565.69;5086212;28;20036;-59
2022/07/10 04:27:31;;;;;;;3.15;1.35;;;;;;;20.99;44.22;102513.03;5086256;28;20025;-60
2022/07/10 04:29:56;;;;;;;3.97;0.80;;;;;;;21.34;44.02;102566.53;5087030;28;20408;-60
2022/07/10 04:32:21;;;;;;;2.65;0.98;;;;;;;21.21;44.18;102542.47;5087538;28;20354;-60
2022/07/10 04:34:47;;;;;;;3.03;1.02;;;;;;;21.31;44.44;102557.81;5085540;28;20106;-60
2022/07/10 04:37:12;;;;;;;1.50;0.70;;;;;;;21.13;44.14;102526.09;5087404;28;20047;-60
2022/07/10 04:39:38;;;;;;;1.52;0.80;;;;;;;21.34;44.34;102562.97;5085573;28;20062;-61
2022/07/10 04:42:07;;;;;;;1.65;0.63;;;;;;;21.08;44.41;102517.56;5086938;28;20052;-60
2022/07/10 04:44:32;;;;;;;;;;;;;;;21.33;44.66;102558.59;5086039;28;20047;-60
2022/07/10 04:47:01;;;;;;;2.78;0.70;;;;;;;21.29;44.59;102549.00;5085792;28;19951;-60
2022/07/10 04:49:26;;;;;;;2.17;0.98;;;;;;;21.31;44.51;102558.66;5085316;28;20541;-60
2022/07/10 04:51:52;;;;;;;2.38;0.88;;;;;;;21.31;44.70;102547.00;5086792;28;20039;-59
2022/07/10 04:54:17;;;;;;;2.30;0.80;;;;;;;21.32;44.56;102548.72;5085405;28;20458;-59
2022/07/10 04:56:43;;;;;;;1.35;1.17;;;;;;;21.32;44.68;102548.72;5085595;28;20024;-60
2022/07/10 04:59:09;;;;;;;2.85;0.88;;;;;;;21.33;44.87;102555.88;5086771;28;20029;-60
2022/07/10 05:01:34;;;;;;;1.33;0.73;;;;;;;21.33;44.73;102556.72;5086567;28;20084;-60
2022/07/10 05:03:59;;;;;;;3.65;0.90;;;;;;;21.33;44.76;102551.31;5085747;28;20020;-61
2022/07/10 05:06:25;;;;;;;2.80;0.90;;;;;;;21.14;44.77;102535.06;5077839;28;20496;-61
2022/07/10 05:08:50;;;;;;;2.47;0.80;;;;;;;21.32;44.92;102560.41;5061778;28;20052;-61
2022/07/10 05:11:16;;;;;;;2.70;0.80;;;;;;;21.33;45.04;102564.00;5046322;28;20029;-59
2022/07/10 05:13:45;;;;;;;2.97;0.85;;;;;;;21.34;45.11;102565.69;5046257;28;20025;-59
2022/07/10 05:16:10;;;;;;;2.05;0.88;;;;;;;21.13;44.83;102527.94;5046354;28;20025;-60
2022/07/10 05:18:35;;;;;;;2.97;0.90;;;;;;;21.32;45.01;102568.53;5044984;28;20021;-60
2022/07/10 05:21:00;;;;;;;2.75;1.00;;;;;;;21.34;45.15;102571.94;5045674;28;20252;-60
2022/07/10 05:23:26;;;;;;;3.97;0.98;;;;;;;21.31;44.77;102565.94;5045471;28;20033;-60
2022/07/10 05:25:51;;;;;;;2.10;0.77;;;;;;;21.33;45.16;102567.53;5028360;28;20048;-60
2022/07/10 05:28:16;;;;;;;4.15;0.80;;;;;;;21.33;45.17;102569.41;5046258;28;20048;-60
2022/07/10 05:30:42;;;;;;;1.80;0.85;;;;;;;21.09;44.99;102534.66;5044335;28;20056;-61
2022/07/10 05:33:07;;;;;;;2.92;0.95;;;;;;;21.31;45.34;102572.19;5044740;28;20028;-60
2022/07/10 05:35:32;;;;;;;2.35;0.90;;;;;;;21.33;45.43;102572.09;5060773;28;20029;-60
2022/07/10 05:37:58;;;;;;;3.03;0.88;;;;;;;21.31;45.36;102569.50;5061314;28;20049;-61
2022/07/10 05:40:23;;;;;;;5.18;1.05;;;;;;;21.33;45.11;102572.97;5045533;28;20461;-61
2022/07/10 05:42:48;;;;;;;2.30;0.85;;;;;;;21.33;45.35;102570.25;5060847;28;20028;-61
2022/07/10 05:45:14;;;;;;;3.08;1.00;;;;;;;21.34;45.38;102571.94;5045602;28;20128;-61
2022/07/10 05:47:39;;;;;;;2.28;0.80;;;;;;;21.10;45.33;102526.38;5045776;28;20033;-61
2022/07/10 05:50:05;;;;;;;4.35;0.90;;;;;;;21.35;45.15;102561.97;5044954;28;20025;-61
2022/07/10 05:52:30;;;;;;;3.35;1.02;;;;;;;21.31;45.14;102561.38;5045550;28;20352;-61
2022/07/10 05:54:56;;;;;;;1.88;0.80;;;;;;;21.34;45.41;102569.25;5045860;28;20056;-61
2022/07/10 05:57:22;;;;;;;2.78;1.00;;;;;;;21.35;45.47;102570.94;5061047;28;20029;-61
2022/07/10 05:59:47;;;;;;;3.47;1.00;;;;;;;21.35;45.49;102573.66;5045209;28;20021;-61
2022/07/10 06:02:13;;;;;;;3.03;1.00;;;;;;;21.32;45.61;102565.81;5045506;28;20092;-61
2022/07/10 06:04:38;;;;;;;2.35;0.95;;;;;;;21.37;45.58;102570.81;5045086;28;20032;-61
2022/07/10 06:07:04;;;;;;;4.57;1.20;;;;;;;21.10;45.70;102528.22;5045511;28;20029;-61
2022/07/10 06:09:29;;;;;;;2.97;1.00;;;;;;;21.14;45.75;102530.50;5060746;28;20368;-61
2022/07/10 06:11:54;;;;;;;2.88;0.90;;;;;;;21.36;45.49;102569.94;5060299;28;20128;-61
2022/07/10 06:14:19;;;;;;;2.53;1.23;;;;;;;21.37;45.91;102563.56;5044924;28;20037;-61
2022/07/10 06:16:45;;;;;;;2.90;0.98;;;;;;;21.37;45.56;102562.72;5077157;28;20025;-61
2022/07/10 06:19:10;;;;;;;1.92;0.77;;;;;;;21.40;45.58;102567.81;5084758;28;20029;-60
2022/07/10 06:21:35;;;;;;;2.78;0.90;;;;;;;21.20;46.14;102531.78;5085043;28;20025;-61
2022/07/10 06:24:01;;;;;;;5.95;1.10;;;;;;;21.40;45.75;102576.78;5083830;28;20183;-61
2022/07/10 06:26:26;;;;;;;3.28;1.08;;;;;;;21.41;45.80;102572.25;5067024;28;20025;-61
2022/07/10 06:28:51;;;;;;;3.80;1.02;;;;;;;21.20;45.89;102548.03;5084881;28;20059;-61
2022/07/10 06:31:16;;;;;;;2.47;1.10;;;;;;;21.16;46.08;102536.63;5085025;28;20489;-60
2022/07/10 06:33:42;;;;;;;1.77;0.85;;;;;;;21.40;46.22;102570.50;5083620;28;20068;-60
2022/07/10 06:36:07;;;;;;;4.80;1.52;;;;;;;21.38;46.06;102580.63;5083543;28;20036;-60
2022/07/10 06:38:33;;;;;;;2.83;0.98;;;;;;;21.41;46.70;102583.06;5083678;28;20033;-60
2022/07/10 06:40:58;;;;;;;3.33;1.13;;;;;;;21.40;46.01;102581.34;5084884;28;20053;-60
2022/07/10 06:43:23;;;;;;;2.53;1.35;;;;;;;21.35;46.45;102572.81;5083205;28;20048;-60
2022/07/10 06:45:49;;;;;;;3.33;1.33;;;;;;;21.21;46.28;102547.03;5083567;28;20460;-60
2022/07/10 06:48:15;;;;;;;2.35;0.80;;;;;;;21.14;46.59;102541.31;5085126;28;20028;-60
2022/07/10 06:50:40;;;;;;;3.05;0.93;;;;;;;21.19;46.53;102549.84;5084307;28;20052;-60
2022/07/10 06:53:06;;;;;;;2.75;0.95;;;;;;;21.40;46.46;102586.75;5083821;28;20443;-61
2022/07/10 06:55:32;;;;;;;2.15;0.70;;;;;;;21.38;46.44;102580.63;5083522;28;20532;-61
2022/07/10 06:57:57;;;;;;;2.55;0.90;;;;;;;21.39;46.51;102583.19;5085011;28;20181;-61
2022/07/10 07:00:23;;;;;;;2.22;1.08;;;;;;;21.40;46.48;102586.75;5083121;28;20041;-61
2022/07/10 07:02:48;;;;;;;2.72;1.10;;;;;;;21.40;46.56;102586.75;5083600;28;20545;-61
2022/07/10 07:05:14;;;;;;;3.25;0.98;;;;;;;21.40;46.87;102584.03;5084030;28;20485;-61
2022/07/10 07:07:39;;;;;;;2.30;1.15;;;;;;;21.21;46.91;102547.03;5084739;28;20107;-61
2022/07/10 07:10:05;;;;;;;1.52;0.80;;;;;;;21.39;46.68;102583.19;5084274;28;20032;-61
2022/07/10 07:12:30;;;;;;;3.90;1.27;;;;;;;21.38;47.03;102577.94;5083117;28;20028;-61
2022/07/10 07:14:56;;;;;;;3.45;1.30;;;;;;;21.38;47.18;102573.38;5083409;28;20382;-61
2022/07/10 07:17:22;;;;;;;2.30;0.90;;;;;;;21.17;47.08;102540.19;5064535;28;20033;-61
2022/07/10 07:25:18;;;;;;;2.33;0.80;;;;;;;21.16;47.26;102538.50;5063529;28;20032;-61
2022/07/10 07:27:43;;;;;;;1.70;0.65;;;;;;;21.42;47.55;102582.91;5063282;28;20089;-60
2022/07/10 07:30:11;;;;;;;2.05;0.93;;;;;;;21.42;47.54;102577.50;5063914;28;20031;-60
2022/07/10 07:32:37;;;;;;;2.15;0.90;;;;;;;21.44;47.67;102574.63;5046508;28;20055;-60
2022/07/10 07:35:03;;;;;;;3.03;0.80;;;;;;;21.44;47.42;102578.19;5045875;28;20116;-61
2022/07/10 07:37:39;;;;;;;2.72;1.70;;;;;;;21.45;47.37;102574.50;5063073;28;20029;-60
2022/07/10 07:40:05;;;;;;;2.90;1.00;;;;;;;21.47;47.64;102579.75;5064194;28;20113;-61
2022/07/10 07:42:31;;;;;;;1.90;1.10;;;;;;;21.48;47.76;102575.19;5064345;28;20021;-61
2022/07/10 07:44:56;;;;;;;3.50;1.00;;;;;;;21.48;47.55;102583.31;5064442;28;20053;-61
2022/07/10 07:47:22;;;;;;;2.65;0.90;;;;;;;21.47;47.75;102579.75;5066826;28;20054;-60
2022/07/10 07:49:47;;;;;;;3.35;1.42;;;;;;;21.48;47.81;102594.16;5065800;28;20367;-60
2022/07/10 07:52:13;;;;;;;2.95;1.00;;;;;;;21.40;47.42;102584.03;5067471;28;20029;-60
2022/07/10 07:54:39;;;;;;;5.15;1.00;;;;;;;21.26;47.73;102554.69;5066269;28;20036;-60
2022/07/10 07:57:04;;;;;;;2.00;0.68;;;;;;;21.45;47.89;102596.16;5067682;28;20033;-60
2022/07/10 07:59:30;;;;;;;3.40;1.00;;;;;;;21.46;48.31;102597.84;5066312;28;20025;-61
2022/07/10 08:01:55;;;;;;;2.60;0.90;;;;;;;21.22;48.38;102554.97;5067650;28;20033;-61
2022/07/10 08:04:20;;;;;;;2.30;0.65;;;;;;;21.45;48.67;102588.03;5065750;28;20029;-61
2022/07/10 08:06:45;;;;;;;1.25;0.75;;;;;;;21.46;48.55;102583.47;5066266;28;20052;-60
2022/07/10 08:09:11;;;;;;;1.55;0.80;;;;;;;21.48;48.46;102588.72;5066061;28;20029;-60
2022/07/10 08:11:36;;;;;;;1.45;0.93;;;;;;;21.28;48.66;102550.88;5049010;28;20474;-60
2022/07/10 08:14:01;;;;;;;1.58;1.00;;;;;;;21.50;49.01;102582.19;5067338;28;20074;-60
2022/07/10 08:16:27;;;;;;;2.40;0.68;;;;;;;21.51;49.00;102585.75;5080726;28;20028;-60
2022/07/10 08:18:52;;;;;;;2.80;0.85;;;;;;;21.51;48.93;102577.63;5086003;28;20034;-61
2022/07/10 08:21:17;;;;;;;2.08;0.82;;;;;;;21.51;49.06;102577.63;5086892;28;20028;-60
2022/07/10 08:23:42;;;;;;;2.60;1.25;;;;;;;21.50;49.04;102571.38;5087566;28;20021;-60
2022/07/10 08:26:08;;;;;;;2.45;1.00;;;;;;;21.51;49.23;102577.63;5087065;28;20032;-60
2022/07/10 08:28:33;;;;;;;3.20;0.75;;;;;;;21.49;49.18;102577.75;5087493;28;20020;-60
2022/07/10 08:30:58;;;;;;;1.90;0.70;;;;;;;21.49;49.32;102577.75;5069107;28;20021;-60
2022/07/10 08:33:24;;;;;;;2.60;0.85;;;;;;;21.49;49.53;102585.88;5085864;28;20530;-61
2022/07/10 08:35:49;;;;;;;2.92;1.02;;;;;;;21.49;49.53;102582.31;5085690;28;20031;-61
2022/07/10 08:38:14;;;;;;;2.35;0.95;;;;;;;21.45;49.50;102585.34;5085970;28;20028;-60
2022/07/10 08:40:40;;;;;;;2.35;1.33;;;;;;;21.46;49.75;102581.63;5086644;28;20032;-60
2022/07/10 08:43:05;;;;;;;1.50;0.80;;;;;;;21.46;49.65;102587.03;5085420;28;20025;-60
2022/07/10 08:45:33;;;;;;;2.13;0.95;;;;;;;21.46;50.02;102584.31;5085275;28;20393;-60
2022/07/10 08:48:02;;;;;;;1.70;0.70;;;;;;;21.46;50.05;102589.75;5085747;28;20020;-61
2022/07/10 08:50:29;;;;;;;2.83;0.90;;;;;;;21.25;49.68;102550.28;5085870;28;20020;-61
2022/07/10 08:53:01;;;;;;;2.38;1.08;;;;;;;21.45;49.79;102579.91;5085500;28;20056;-61
2022/07/10 08:55:26;;;;;;;3.47;0.80;;;;;;;21.45;49.91;102576.34;5086393;28;20032;-60
2022/07/10 08:57:54;;;;;;;2.88;1.23;;;;;;;21.44;50.16;102577.34;5084654;28;20039;-60
2022/07/10 09:00:20;;;;;;;3.22;0.90;;;;;;;21.18;50.08;102537.34;5085149;28;20555;-61
2022/07/10 09:02:45;;;;;;;1.85;0.85;;;;;;;21.43;49.92;102589.16;5086562;28;20028;-60
2022/07/10 09:05:10;;;;;;;2.75;0.80;;;;;;;21.42;49.87;102582.06;5086150;28;20461;-61
2022/07/10 09:07:36;;;;;;;1.17;0.60;;;;;;;21.38;50.14;102576.06;5086725;28;20020;-60
2022/07/10 09:10:06;;;;;;;3.17;1.00;;;;;;;21.41;50.44;102586.63;5068491;28;20393;-60
2022/07/10 09:12:51;;;;;;;1.77;0.75;;;;;;;21.41;50.42;102581.22;5084768;28;20096;-61
2022/07/10 09:15:18;;;;;;;1.48;1.00;;;;;;;21.41;50.38;102583.06;5080883;28;20028;-61
2022/07/10 09:17:58;;;;;;;2.83;0.98;;;;;;;21.19;50.45;102540.88;5065063;28;20124;-61
2022/07/10 09:20:34;;;;;;;2.22;1.40;;;;;;;21.42;50.32;102568.53;5064085;28;20032;-60
2022/07/10 09:23:10;;;;;;;3.38;1.13;;;;;;;21.17;50.19;102526.66;5066461;28;20009;-60
2022/07/10 09:25:35;;;;;;;1.27;0.73;;;;;;;21.40;50.22;102579.47;5048150;28;20032;-60
2022/07/10 09:28:05;;;;;;;2.25;1.08;;;;;;;21.37;50.23;102574.38;5066445;28;20021;-60
2022/07/10 09:30:38;;;;;;;3.95;1.25;;;;;;;21.39;50.26;102577.78;5065513;28;20031;-60
2022/07/10 09:33:27;;;;;;;2.63;0.90;;;;;;;21.40;50.29;102575.91;5048015;28;20085;-60
2022/07/10 09:36:06;;;;;;;;;;;;;;;21.38;50.45;102575.22;5048782;28;20116;-60
2022/07/10 09:38:52;;;;;;;2.10;1.10;;;;;;;21.39;50.41;102571.50;5065748;28;19915;-60
2022/07/10 09:41:20;;;;;;;2.33;1.20;;;;;;;21.18;50.30;102537.34;5064324;28;20063;-60
2022/07/10 09:44:00;;;;;;;2.53;0.95;;;;;;;21.39;50.44;102571.50;5065390;28;20040;-60
2022/07/10 09:46:33;;;;;;;3.40;1.05;;;;;;;21.39;50.52;102566.94;5064243;28;20029;-60
2022/07/10 09:49:05;;;;;;;4.63;1.20;;;;;;;21.39;50.24;102564.25;5065714;28;20104;-60
2022/07/10 09:51:41;;;;;;;1.33;0.80;;;;;;;21.41;50.39;102567.69;5065249;28;20040;-60
2022/07/10 09:54:07;;;;;;;2.95;0.80;;;;;;;21.41;50.68;102564.97;5047922;28;20025;-61
2022/07/10 09:56:40;;;;;;;1.73;0.82;;;;;;;21.43;50.57;102572.94;5064223;28;20087;-60
2022/07/10 09:59:08;;;;;;;1.85;0.95;;;;;;;21.16;50.65;102520.41;5064162;28;20059;-61
2022/07/10 10:01:35;;;;;;;3.05;1.00;;;;;;;21.45;50.66;102560.09;5064193;28;20029;-60
2022/07/10 10:04:01;;;;;;;1.42;0.93;;;;;;;21.45;50.56;102560.97;5064113;28;20029;-61
2022/07/10 10:06:30;;;;;;;3.55;1.48;;;;;;;21.29;50.85;102536.34;5065036;28;20021;-61
2022/07/10 10:09:10;;;;;;;;;;;;;;;21.45;50.82;102554.69;5064394;28;20032;-60
2022/07/10 10:11:39;;;;;;;1.80;0.85;;;;;;;21.45;51.08;102560.97;5065013;28;19908;-60
2022/07/10 10:14:06;;;;;;;2.63;0.95;;;;;;;21.38;51.00;102556.28;5065502;28;20060;-61
2022/07/10 10:16:33;;;;;;;2.78;0.93;;;;;;;21.22;50.74;102527.09;5077922;28;20036;-61
2022/07/10 10:21:43;;;;;;;3.22;1.25;;;;;;;21.42;50.88;102568.53;5084972;28;20039;-61
2022/07/10 10:24:09;;;;;;;1.50;1.00;;;;;;;21.42;50.98;102563.13;5085316;28;20024;-60
2022/07/10 10:26:35;;;;;;;2.10;1.10;;;;;;;21.36;50.71;102548.28;5085074;28;20470;-61
2022/07/10 10:29:01;;;;;;;3.45;1.13;;;;;;;21.41;50.87;102564.13;5083851;28;20039;-60
2022/07/10 10:31:28;;;;;;;3.13;1.13;;;;;;;21.18;51.03;102518.41;5083611;28;20036;-60
2022/07/10 10:33:57;;;;;;;2.88;1.00;;;;;;;21.40;50.66;102560.53;5083994;28;20032;-61
2022/07/10 10:36:36;;;;;;;3.47;1.05;;;;;;;21.42;50.69;102555.00;5084746;28;20035;-61
2022/07/10 10:39:21;;;;;;;2.28;1.10;;;;;;;21.42;50.88;102557.72;5085182;28;20032;-61
2022/07/10 10:41:53;;;;;;;3.45;1.20;;;;;;;21.44;51.17;102558.41;5083260;28;20621;-61
2022/07/10 10:44:20;;;;;;;1.92;0.85;;;;;;;21.43;50.97;102554.84;5083633;28;20508;-61
2022/07/10 10:46:56;;;;;;;1.95;0.90;;;;;;;21.45;50.98;102552.88;5083505;28;20031;-59
2022/07/10 10:49:24;;;;;;;1.80;1.00;;;;;;;21.45;50.83;102552.88;5084450;28;20039;-61
2022/07/10 10:51:56;;;;;;;2.27;1.00;;;;;;;21.47;51.16;102558.13;5083387;28;20074;-61
2022/07/10 10:54:22;;;;;;;2.05;1.08;;;;;;;21.25;50.86;102515.13;5084981;28;20025;-60
2022/07/10 10:57:16;;;;;;;3.55;1.17;;;;;;;21.46;51.16;102551.84;5083440;28;20031;-60
2022/07/10 10:59:49;;;;;;;1.88;1.52;;;;;;;21.46;50.85;102548.28;5083626;28;20024;-60
2022/07/10 11:02:21;;;;;;;2.65;1.17;;;;;;;21.48;51.18;102553.56;5084752;28;20031;-61
2022/07/10 11:04:47;;;;;;;1.70;0.90;;;;;;;21.49;51.02;102541.72;5084318;28;20092;-61
2022/07/10 11:07:12;;;;;;;2.10;0.88;;;;;;;21.31;50.76;102509.97;5084806;28;20037;-61
2022/07/10 11:09:37;;;;;;;1.52;0.80;;;;;;;21.51;50.88;102535.19;5066643;28;20039;-61
2022/07/10 11:12:08;;;;;;;1.48;0.90;;;;;;;21.50;50.88;102528.06;5084334;28;20374;-61
2022/07/10 11:14:36;;;;;;;2.08;0.80;;;;;;;21.56;50.56;102537.44;5083642;28;20048;-60
2022/07/10 11:17:02;;;;;;;2.60;0.82;;;;;;;21.58;50.93;102535.44;5064989;28;20027;-61
2022/07/10 11:19:29;;;;;;;2.20;0.75;;;;;;;21.58;50.66;102530.91;5064301;28;20028;-61
2022/07/10 11:22:04;;;;;;;1.65;0.90;;;;;;;21.59;50.57;102531.75;5066922;28;20017;-61
2022/07/10 11:24:51;;;;;;;2.10;1.27;;;;;;;21.62;50.71;102536.84;5067474;28;20139;-60
2022/07/10 11:27:33;;;;;;;2.60;0.93;;;;;;;21.61;50.76;102541.41;5068292;28;20021;-61
2022/07/10 11:30:01;;;;;;;1.58;0.93;;;;;;;21.60;50.64;102534.28;5067257;28;20041;-61
2022/07/10 11:32:28;;;;;;;2.03;0.88;;;;;;;21.60;51.06;102533.44;5067915;28;20048;-61
2022/07/10 11:34:54;;;;;;;3.63;1.30;;;;;;;21.58;50.73;102530.91;5050163;28;20123;-61